Time;durP1;ratioP1;P1;durP2;ratioP2;P2;SDS_P1;SDS_P2;PMS_P1;PMS_P2;Temp;Humidity;BMP_temperature;BMP_pressure;BME280_temperature;BME280_humidity;BME280_pressure;Samples;Min_cycle;Max_cycle;Signal;HPM_P1;HPM_P2
2021/12/08 00:00:12;;;;;;;;;31.00;28.50;;;;;;;;5121709;27;13266;-76
2021/12/08 00:02:37;;;;;;;;;29.00;27.00;;;;;;;;5122062;27;13490;-75
2021/12/08 00:05:03;;;;;;;;;29.50;28.50;;;;;;;;5121751;27;13920;-77
2021/12/08 00:07:29;;;;;;;;;27.33;25.67;;;;;;;;5121626;27;10437;-77
2021/12/08 00:10:17;;;;;;;;;27.33;26.00;;;;;;;;5121582;28;11581;-76
2021/12/08 00:13:03;;;;;;;;;25.00;23.00;;;;;;;;5121879;28;9364;-77
2021/12/08 00:15:29;;;;;;;;;23.00;19.50;;;;;;;;5119936;27;13112;-76
2021/12/08 00:17:56;;;;;;;;;25.50;21.75;;;;;;;;5121337;28;12402;-76
2021/12/08 00:20:21;;;;;;;;;23.00;22.00;;;;;;;;5121098;28;12830;-75
2021/12/08 00:22:46;;;;;;;;;29.00;23.25;;;;;;;;5121402;27;11828;-75
2021/12/08 00:25:12;;;;;;;;;22.50;21.25;;;;;;;;5120999;28;11661;-76
2021/12/08 00:27:37;;;;;;;;;23.25;21.00;;;;;;;;5121963;28;10879;-77
2021/12/08 00:30:03;;;;;;;;;28.00;24.33;;;;;;;;5119587;28;11542;-76
2021/12/08 00:32:29;;;;;;;;;27.00;24.33;;;;;;;;5120965;27;11468;-75
2021/12/08 00:34:54;;;;;;;;;26.67;25.00;;;;;;;;5121144;27;9631;-76
2021/12/08 00:37:20;;;;;;;;;20.00;19.00;;;;;;;;5121078;28;11357;-76
2021/12/08 00:39:45;;;;;;;;;26.00;22.67;;;;;;;;5120561;27;11666;-74
2021/12/08 00:42:11;;;;;;;;;20.33;18.33;;;;;;;;5121321;27;13582;-74
2021/12/08 00:44:36;;;;;;;;;25.67;22.33;;;;;;;;5120980;28;12643;-75
2021/12/08 00:47:03;;;;;;;;;25.00;22.00;;;;;;;;5121210;27;11672;-75
2021/12/08 00:49:28;;;;;;;;;18.33;16.67;;;;;;;;5121331;27;8857;-74
2021/12/08 00:51:54;;;;;;;;;27.00;23.67;;;;;;;;5120477;28;13531;-76
2021/12/08 00:54:19;;;;;;;;;20.67;20.67;;;;;;;;5120619;27;12377;-76
2021/12/08 00:56:44;;;;;;;;;28.33;20.00;;;;;;;;5120493;27;10591;-74
2021/12/08 00:59:10;;;;;;;;;20.33;19.00;;;;;;;;5120130;28;12756;-75
2021/12/08 01:01:35;;;;;;;;;23.25;19.00;;;;;;;;5120315;27;9511;-75
2021/12/08 01:04:00;;;;;;;;;25.00;23.00;;;;;;;;5120622;28;8788;-74
2021/12/08 01:06:26;;;;;;;;;20.25;20.25;;;;;;;;5121088;28;11523;-75
2021/12/08 01:08:51;;;;;;;;;21.33;19.00;;;;;;;;5120817;27;11621;-74
2021/12/08 01:11:19;;;;;;;;;23.00;19.67;;;;;;;;5120939;27;12503;-75
2021/12/08 01:13:44;;;;;;;;;25.67;22.00;;;;;;;;5120688;27;13156;-76
2021/12/08 01:16:10;;;;;;;;;20.67;16.00;;;;;;;;5120383;27;12255;-76
2021/12/08 01:18:35;;;;;;;;;24.33;22.33;;;;;;;;5120660;27;10028;-75
2021/12/08 01:21:04;;;;;;;;;25.67;21.33;;;;;;;;5121124;28;12190;-76
2021/12/08 01:23:29;;;;;;;;;26.33;22.67;;;;;;;;5120692;27;10910;-75
2021/12/08 01:25:55;;;;;;;;;32.67;26.00;;;;;;;;5119357;27;11393;-75
2021/12/08 01:28:23;;;;;;;;;31.25;26.00;;;;;;;;5120142;27;13235;-75
2021/12/08 01:30:50;;;;;;;;;29.75;27.50;;;;;;;;5120328;27;8929;-76
2021/12/08 01:33:16;;;;;;;;;35.75;30.50;;;;;;;;5120312;27;14666;-76
2021/12/08 01:35:42;;;;;;;;;33.25;29.75;;;;;;;;5120128;27;10667;-77
2021/12/08 01:38:07;;;;;;;;;34.00;28.75;;;;;;;;5121173;27;12208;-77
2021/12/08 01:40:33;;;;;;;;;34.50;31.75;;;;;;;;5120580;28;10694;-76
2021/12/08 01:43:01;;;;;;;;;33.00;30.75;;;;;;;;5120724;27;11379;-77
2021/12/08 01:46:12;;;;;;;;;29.00;28.25;;;;;;;;5120629;27;11027;-74
2021/12/08 01:48:14;;;;;;;;;33.50;28.50;;;;;;;;5112908;27;13780;-77
2021/12/08 01:50:41;;;;;;;;;36.75;33.75;;;;;;;;5120084;27;14742;-76
2021/12/08 01:53:07;;;;;;;;;30.25;27.50;;;;;;;;5120736;27;12514;-76
2021/12/08 01:55:32;;;;;;;;;35.00;27.00;;;;;;;;5120343;28;12794;-76
2021/12/08 01:57:58;;;;;;;;;31.25;27.00;;;;;;;;5120719;27;11448;-76
2021/12/08 02:00:26;;;;;;;;;26.67;26.00;;;;;;;;5120267;27;9009;-76
2021/12/08 02:02:51;;;;;;;;;34.75;25.75;;;;;;;;5121152;27;12295;-77
2021/12/08 02:05:17;;;;;;;;;27.00;27.00;;;;;;;;5119025;28;16388;-76
2021/12/08 02:07:43;;;;;;;;;26.33;25.00;;;;;;;;5120457;27;13279;-75
2021/12/08 02:10:09;;;;;;;;;31.25;25.75;;;;;;;;5119299;27;10804;-76
2021/12/08 02:12:38;;;;;;;;;26.00;23.33;;;;;;;;5119640;27;13809;-76
2021/12/08 02:15:04;;;;;;;;;21.00;21.00;;;;;;;;5119681;28;12564;-76
2021/12/08 02:17:30;;;;;;;;;24.50;19.25;;;;;;;;5119339;27;11661;-76
2021/12/08 02:19:55;;;;;;;;;27.50;23.50;;;;;;;;5119631;27;12359;-76
2021/12/08 02:22:21;;;;;;;;;29.75;24.25;;;;;;;;5119627;27;12188;-75
2021/12/08 02:24:46;;;;;;;;;24.00;22.00;;;;;;;;5119548;27;11539;-75
2021/12/08 02:27:11;;;;;;;;;28.50;21.25;;;;;;;;5119575;28;11949;-76
2021/12/08 02:29:44;;;;;;;;;23.25;19.50;;;;;;;;5119818;28;11387;-77
2021/12/08 02:48:18;;;;;;;;;25.75;24.00;;;;;;;;5122877;28;8757;-75
2021/12/08 02:50:44;;;;;;;;;24.25;20.25;;;;;;;;5123150;28;8799;-75
2021/12/08 02:53:10;;;;;;;;;25.75;22.00;;;;;;;;5122997;27;11381;-75
2021/12/08 02:55:36;;;;;;;;;24.50;24.50;;;;;;;;5122501;27;11531;-75
2021/12/08 02:58:02;;;;;;;;;22.50;21.25;;;;;;;;5123200;28;11560;-75
2021/12/08 03:00:31;;;;;;;;;30.00;23.00;;;;;;;;5122849;27;12500;-75
2021/12/08 03:02:58;;;;;;;;;25.50;22.00;;;;;;;;5123245;27;13375;-75
2021/12/08 03:05:24;;;;;;;;;26.25;21.75;;;;;;;;5122735;27;12339;-76
2021/12/08 03:07:49;;;;;;;;;20.00;16.25;;;;;;;;5122449;27;11467;-74
2021/12/08 03:10:18;;;;;;;;;23.50;23.50;;;;;;;;5122049;28;11610;-75
2021/12/08 03:12:43;;;;;;;;;21.00;18.75;;;;;;;;5122604;27;12527;-74
2021/12/08 03:15:10;;;;;;;;;25.25;21.25;;;;;;;;5122361;27;12250;-75
2021/12/08 03:17:36;;;;;;;;;18.50;17.00;;;;;;;;5122111;27;11909;-75
2021/12/08 03:20:06;;;;;;;;;24.50;21.50;;;;;;;;5123146;27;13194;-75
2021/12/08 03:22:33;;;;;;;;;25.00;23.75;;;;;;;;5122525;27;13683;-74
2021/12/08 03:25:01;;;;;;;;;24.00;21.25;;;;;;;;5122247;27;11441;-74
2021/12/08 03:27:33;;;;;;;;;22.00;18.75;;;;;;;;5122856;28;10629;-75
2021/12/08 03:30:11;;;;;;;;;23.50;20.75;;;;;;;;5122709;28;11936;-75
2021/12/08 03:32:38;;;;;;;;;31.00;25.00;;;;;;;;5122478;27;11959;-76
2021/12/08 03:35:07;;;;;;;;;24.00;22.00;;;;;;;;5122060;27;13342;-75
2021/12/08 03:37:34;;;;;;;;;29.00;23.50;;;;;;;;5122260;27;10792;-75
2021/12/08 03:40:03;;;;;;;;;29.75;27.25;;;;;;;;5121892;27;11822;-75
2021/12/08 03:42:29;;;;;;;;;34.25;29.50;;;;;;;;5122153;27;10864;-75
2021/12/08 03:44:58;;;;;;;;;32.50;30.50;;;;;;;;5121649;27;13808;-75
2021/12/08 03:47:29;;;;;;;;;35.25;30.75;;;;;;;;5121927;27;12706;-75
2021/12/08 03:49:55;;;;;;;;;30.25;28.00;;;;;;;;5121415;27;11805;-75
2021/12/08 03:52:21;;;;;;;;;38.00;30.00;;;;;;;;5122369;27;12846;-75
2021/12/08 03:54:46;;;;;;;;;34.75;30.50;;;;;;;;5121919;27;11375;-74
2021/12/08 03:57:11;;;;;;;;;34.75;31.00;;;;;;;;5121985;27;11444;-76
2021/12/08 03:59:37;;;;;;;;;32.25;27.75;;;;;;;;5122499;27;9263;-76
2021/12/08 04:02:03;;;;;;;;;31.50;28.00;;;;;;;;5122305;27;12443;-75
2021/12/08 04:04:30;;;;;;;;;32.25;29.00;;;;;;;;5121750;27;11972;-75
2021/12/08 04:06:57;;;;;;;;;34.00;28.50;;;;;;;;5120277;28;11016;-75
2021/12/08 04:09:31;;;;;;;;;32.25;29.25;;;;;;;;5121787;27;11641;-75
2021/12/08 04:11:57;;;;;;;;;36.00;26.50;;;;;;;;5122202;27;11941;-75
2021/12/08 04:14:24;;;;;;;;;31.00;31.00;;;;;;;;5122146;28;11410;-76
2021/12/08 04:16:52;;;;;;;;;26.50;26.50;;;;;;;;5121799;27;12375;-76
2021/12/08 04:19:18;;;;;;;;;29.25;24.50;;;;;;;;5121702;27;14590;-76
2021/12/08 04:21:44;;;;;;;;;28.50;26.25;;;;;;;;5121613;27;10595;-75
2021/12/08 04:24:10;;;;;;;;;36.25;31.50;;;;;;;;5120994;27;11520;-75
2021/12/08 04:26:45;;;;;;;;;29.00;29.00;;;;;;;;5120836;27;13216;-75
2021/12/08 04:29:11;;;;;;;;;32.50;27.00;;;;;;;;5120365;27;14085;-75
2021/12/08 04:31:37;;;;;;;;;26.25;25.00;;;;;;;;5121666;28;12324;-74
2021/12/08 04:34:05;;;;;;;;;32.25;29.25;;;;;;;;5120829;27;12416;-75
2021/12/08 04:36:37;;;;;;;;;32.00;27.75;;;;;;;;5120847;27;13495;-76
2021/12/08 04:39:06;;;;;;;;;27.00;22.00;;;;;;;;5120968;27;9948;-76
2021/12/08 04:41:38;;;;;;;;;31.75;24.00;;;;;;;;5121465;27;13843;-76
2021/12/08 04:44:21;;;;;;;;;28.25;23.00;;;;;;;;5120655;28;12654;-72
2021/12/08 04:52:20;;;;;;;;;26.50;19.75;;;;;;;;5120423;27;12275;-72
2021/12/08 05:00:56;;;;;;;;;30.00;24.00;;;;;;;;5120552;28;9926;-72
2021/12/08 05:08:15;;;;;;;;;22.25;22.25;;;;;;;;5120099;28;11598;-72
2021/12/08 05:10:41;;;;;;;;;32.25;28.00;;;;;;;;5119611;27;11444;-72
2021/12/08 05:13:08;;;;;;;;;30.50;28.50;;;;;;;;5120119;27;13829;-71
2021/12/08 05:15:43;;;;;;;;;28.25;27.25;;;;;;;;5120362;27;11617;-72
2021/12/08 05:18:14;;;;;;;;;30.00;30.00;;;;;;;;5120101;27;13285;-72
2021/12/08 05:20:43;;;;;;;;;34.25;30.25;;;;;;;;5120277;28;14671;-72
2021/12/08 05:23:11;;;;;;;;;31.00;30.00;;;;;;;;5119333;28;11518;-72
2021/12/08 05:25:37;;;;;;;;;21.75;19.00;;;;;;;;5119668;27;11450;-73
2021/12/08 05:28:04;;;;;;;;;31.75;25.50;;;;;;;;5119928;27;12262;-72
2021/12/08 05:30:36;;;;;;;;;40.75;33.25;;;;;;;;5118399;27;13742;-71
2021/12/08 05:33:02;;;;;;;;;34.00;31.50;;;;;;;;5119801;27;13504;-72
2021/12/08 05:35:28;;;;;;;;;39.25;34.25;;;;;;;;5119611;27;13291;-71
2021/12/08 05:37:54;;;;;;;;;41.25;38.00;;;;;;;;5119831;27;11648;-72
2021/12/08 05:40:23;;;;;;;;;23.50;20.00;;;;;;;;5120066;27;13355;-72
2021/12/08 05:42:48;;;;;;;;;40.50;40.00;;;;;;;;5119905;27;12288;-72
2021/12/08 05:45:16;;;;;;;;;46.00;40.00;;;;;;;;5120507;27;9561;-73
2021/12/08 05:47:41;;;;;;;;;41.50;38.00;;;;;;;;5119772;27;9029;-73
2021/12/08 05:50:08;;;;;;;;;44.50;41.00;;;;;;;;5119629;27;11376;-72
2021/12/08 05:52:34;;;;;;;;;46.00;41.00;;;;;;;;5120046;27;9771;-72
2021/12/08 05:54:59;;;;;;;;;47.75;43.50;;;;;;;;5119768;28;10272;-72
2021/12/08 05:57:28;;;;;;;;;53.75;45.75;;;;;;;;5119688;27;11441;-73
2021/12/08 05:59:54;;;;;;;;;46.75;43.75;;;;;;;;5119210;27;13324;-73
2021/12/08 06:02:30;;;;;;;;;55.50;47.25;;;;;;;;5119931;27;10469;-76
2021/12/08 06:04:56;;;;;;;;;52.50;44.00;;;;;;;;5119493;27;13471;-72
2021/12/08 06:07:22;;;;;;;;;40.00;35.50;;;;;;;;5119253;27;11440;-72
2021/12/08 06:09:48;;;;;;;;;62.50;48.50;;;;;;;;5117847;28;15301;-79
2021/12/08 06:12:13;;;;;;;;;61.50;49.25;;;;;;;;5120322;27;13447;-74
2021/12/08 06:14:39;;;;;;;;;55.50;48.00;;;;;;;;5120086;27;12876;-73
2021/12/08 06:17:09;;;;;;;;;60.75;48.50;;;;;;;;5119689;28;13461;-73
2021/12/08 06:19:36;;;;;;;;;59.00;48.25;;;;;;;;5119794;27;13552;-73
2021/12/08 06:22:01;;;;;;;;;62.00;49.75;;;;;;;;5118805;27;14805;-72
2021/12/08 06:24:26;;;;;;;;;64.00;53.00;;;;;;;;5118678;27;12216;-73
2021/12/08 06:26:52;;;;;;;;;65.75;52.75;;;;;;;;5118778;27;12197;-73
2021/12/08 06:29:18;;;;;;;;;59.50;50.25;;;;;;;;5118971;27;11946;-73
2021/12/08 06:31:45;;;;;;;;;60.50;49.00;;;;;;;;5122740;27;12463;-73
2021/12/08 06:34:10;;;;;;;;;63.50;52.25;;;;;;;;5127563;27;13336;-73
2021/12/08 06:36:41;;;;;;;;;59.00;49.50;;;;;;;;5139433;27;12482;-73
2021/12/08 06:39:12;;;;;;;;;59.00;48.50;;;;;;;;5137494;27;13840;-73
2021/12/08 06:41:42;;;;;;;;;64.25;49.75;;;;;;;;5140077;27;8757;-72
2021/12/08 06:44:10;;;;;;;;;62.00;50.25;;;;;;;;5133612;27;13339;-73
2021/12/08 06:46:36;;;;;;;;;61.50;49.25;;;;;;;;5139085;27;11467;-73
2021/12/08 06:49:03;;;;;;;;;60.00;47.25;;;;;;;;5137378;27;11529;-73
2021/12/08 06:51:36;;;;;;;;;60.75;48.75;;;;;;;;5134979;27;10425;-73
2021/12/08 06:54:13;;;;;;;;;62.75;49.00;;;;;;;;5127735;27;10059;-74
2021/12/08 06:56:46;;;;;;;;;64.00;52.00;;;;;;;;5128419;27;11482;-74
2021/12/08 06:59:16;;;;;;;;;63.50;52.25;;;;;;;;5140413;27;12554;-75
2021/12/08 07:01:52;;;;;;;;;56.50;47.50;;;;;;;;5133937;27;11836;-75
2021/12/08 07:04:34;;;;;;;;;65.25;52.50;;;;;;;;5132983;27;15678;-73
2021/12/08 07:07:12;;;;;;;;;63.75;53.00;;;;;;;;5128877;27;12333;-72
2021/12/08 07:09:37;;;;;;;;;62.25;50.25;;;;;;;;5135108;27;11530;-72
2021/12/08 07:12:35;;;;;;;;;58.25;49.75;;;;;;;;5138544;27;11435;-74
2021/12/08 07:15:04;;;;;;;;;69.50;52.75;;;;;;;;5101849;27;12288;-78
2021/12/08 07:17:32;;;;;;;;;63.00;51.25;;;;;;;;5137458;27;12284;-74
2021/12/08 07:20:14;;;;;;;;;64.25;53.50;;;;;;;;5137826;27;13026;-76
2021/12/08 07:22:41;;;;;;;;;62.75;49.25;;;;;;;;5138766;27;12823;-75
2021/12/08 07:25:07;;;;;;;;;67.25;55.00;;;;;;;;5139010;27;12288;-74
2021/12/08 07:27:35;;;;;;;;;51.75;45.25;;;;;;;;5139071;27;12644;-75
2021/12/08 07:30:05;;;;;;;;;68.75;55.25;;;;;;;;5139238;27;13311;-76
2021/12/08 07:32:33;;;;;;;;;67.75;55.25;;;;;;;;5139943;27;9806;-73
2021/12/08 07:35:02;;;;;;;;;68.00;54.75;;;;;;;;5143501;27;8808;-74
2021/12/08 07:37:29;;;;;;;;;67.50;53.50;;;;;;;;5142675;27;10908;-75
2021/12/08 07:40:00;;;;;;;;;72.75;58.75;;;;;;;;5143124;27;11435;-76
2021/12/08 07:42:29;;;;;;;;;69.75;57.00;;;;;;;;5143690;27;13333;-77
2021/12/08 07:44:56;;;;;;;;;66.25;52.75;;;;;;;;5141970;27;13490;-74
2021/12/08 07:47:23;;;;;;;;;68.25;56.25;;;;;;;;5142000;27;11843;-73
2021/12/08 07:49:57;;;;;;;;;68.00;55.50;;;;;;;;5142416;27;10399;-78
2021/12/08 07:52:25;;;;;;;;;67.75;53.25;;;;;;;;5133571;27;10682;-78
2021/12/08 07:54:51;;;;;;;;;69.25;54.25;;;;;;;;5121500;27;11452;-80
2021/12/08 07:57:19;;;;;;;;;64.75;52.25;;;;;;;;5120485;28;10808;-81
2021/12/08 07:59:47;;;;;;;;;67.50;54.25;;;;;;;;5123027;27;10885;-80
2021/12/08 08:02:13;;;;;;;;;71.25;56.00;;;;;;;;5123167;27;10924;-85
2021/12/08 08:04:42;;;;;;;;;70.00;56.25;;;;;;;;5121247;27;13430;-82
2021/12/08 08:07:08;;;;;;;;;64.75;53.00;;;;;;;;5122947;27;11739;-83
2021/12/08 08:09:38;;;;;;;;;71.25;57.75;;;;;;;;5123376;27;13496;-83
2021/12/08 08:12:05;;;;;;;;;70.00;55.75;;;;;;;;5121971;27;13357;-84
2021/12/08 08:14:38;;;;;;;;;66.75;53.25;;;;;;;;5123652;27;10596;-82
2021/12/08 08:17:03;;;;;;;;;67.50;55.25;;;;;;;;5120555;27;12705;-81
2021/12/08 08:19:30;;;;;;;;;65.75;52.75;;;;;;;;5122105;27;10371;-77
2021/12/08 08:21:59;;;;;;;;;63.25;49.50;;;;;;;;5121780;27;10617;-77
2021/12/08 08:24:24;;;;;;;;;63.00;52.75;;;;;;;;5145979;27;12281;-76
2021/12/08 08:26:51;;;;;;;;;70.75;55.50;;;;;;;;5163294;27;12217;-76
2021/12/08 08:29:17;;;;;;;;;74.25;58.50;;;;;;;;5159288;27;13923;-77
2021/12/08 08:31:46;;;;;;;;;68.75;54.00;;;;;;;;5133848;27;9560;-83
2021/12/08 08:34:12;;;;;;;;;66.50;53.25;;;;;;;;5125463;28;13565;-81
2021/12/08 08:36:40;;;;;;;;;66.25;55.50;;;;;;;;5123563;27;11380;-78
2021/12/08 08:39:10;;;;;;;;;66.75;53.75;;;;;;;;5122079;27;10675;-83
2021/12/08 08:41:42;;;;;;;;;63.75;53.00;;;;;;;;5122021;27;10642;-83
2021/12/08 08:44:10;;;;;;;;;68.25;54.75;;;;;;;;5121615;27;11523;-77
2021/12/08 08:46:38;;;;;;;;;67.25;56.25;;;;;;;;5121189;27;11482;-80
2021/12/08 08:49:06;;;;;;;;;62.25;50.50;;;;;;;;5121391;27;10639;-79
2021/12/08 08:51:34;;;;;;;;;77.25;62.25;;;;;;;;5123139;27;11799;-82
2021/12/08 18:33:54;;;;;;;;;56.75;47.25;;;;;;;;5148883;27;1409835;-75
2021/12/08 18:36:27;;;;;;;;;57.75;47.00;;;;;;;;5187234;27;23927;-78
2021/12/08 18:38:56;;;;;;;;;59.25;48.50;;;;;;;;5168649;27;13635;-78
2021/12/08 18:41:22;;;;;;;;;63.00;49.50;;;;;;;;5188346;27;12179;-77
2021/12/08 18:43:50;;;;;;;;;60.50;51.00;;;;;;;;5187895;27;13544;-78
2021/12/08 18:46:16;;;;;;;;;66.50;57.00;;;;;;;;5185348;27;12645;-75
2021/12/08 18:48:42;;;;;;;;;70.50;58.00;;;;;;;;5186764;27;8760;-76
2021/12/08 18:51:10;;;;;;;;;75.50;57.25;;;;;;;;5193559;27;10566;-76
2021/12/08 18:53:36;;;;;;;;;77.75;61.00;;;;;;;;5186261;27;11498;-75
2021/12/08 18:56:02;;;;;;;;;84.00;71.25;;;;;;;;5166901;27;12317;-75
2021/12/08 18:58:29;;;;;;;;;76.75;61.75;;;;;;;;5125847;27;13810;-76
2021/12/08 19:00:55;;;;;;;;;77.50;61.00;;;;;;;;5151016;27;12285;-74
2021/12/08 19:03:20;;;;;;;;;76.50;61.25;;;;;;;;5146327;27;11452;-75
2021/12/08 19:05:45;;;;;;;;;70.00;58.25;;;;;;;;5143233;27;12692;-77
2021/12/08 19:08:11;;;;;;;;;83.25;62.50;;;;;;;;5147576;27;11904;-78
2021/12/08 19:10:36;;;;;;;;;73.75;59.25;;;;;;;;5150256;27;13901;-74
2021/12/08 19:13:05;;;;;;;;;79.25;61.25;;;;;;;;5157038;27;13462;-75
2021/12/08 19:15:31;;;;;;;;;77.00;61.00;;;;;;;;5154848;27;10530;-80
2021/12/08 19:17:57;;;;;;;;;77.50;62.50;;;;;;;;5156674;27;11582;-78
2021/12/08 19:20:23;;;;;;;;;80.25;63.75;;;;;;;;5156346;27;10611;-76
2021/12/08 19:22:49;;;;;;;;;76.75;60.25;;;;;;;;5156987;27;13360;-82
2021/12/08 19:25:15;;;;;;;;;80.75;65.00;;;;;;;;5157482;27;14813;-80
2021/12/08 19:27:42;;;;;;;;;84.00;63.50;;;;;;;;5151915;27;13228;-81
2021/12/08 19:30:07;;;;;;;;;84.00;64.50;;;;;;;;5135969;27;11460;-82
2021/12/08 19:32:33;;;;;;;;;88.50;69.25;;;;;;;;5106328;27;11907;-78
2021/12/08 19:34:58;;;;;;;;;85.50;69.00;;;;;;;;5143380;27;13392;-79
2021/12/08 19:37:25;;;;;;;;;83.00;68.75;;;;;;;;5134797;27;11580;-80
2021/12/08 19:39:50;;;;;;;;;87.50;71.50;;;;;;;;5150292;27;14939;-81
2021/12/08 19:42:18;;;;;;;;;85.00;65.75;;;;;;;;5135577;27;12701;-79
2021/12/08 19:44:46;;;;;;;;;86.00;68.00;;;;;;;;5132392;27;13950;-77
2021/12/08 19:47:12;;;;;;;;;83.75;68.50;;;;;;;;5141392;27;11796;-76
2021/12/08 19:49:37;;;;;;;;;86.00;71.75;;;;;;;;5137552;27;11600;-78
2021/12/08 19:52:03;;;;;;;;;89.00;69.75;;;;;;;;5106738;22;12194;-71
2021/12/08 19:54:28;;;;;;;;;87.25;71.00;;;;;;;;5057420;28;9521;-73
2021/12/08 19:56:57;;;;;;;;;86.25;72.75;;;;;;;;5059728;28;13278;-73
2021/12/08 19:59:23;;;;;;;;;91.25;74.00;;;;;;;;5060337;28;11839;-73
2021/12/08 20:01:48;;;;;;;;;88.75;71.00;;;;;;;;5060166;28;13277;-74
2021/12/08 20:04:16;;;;;;;;;90.50;77.50;;;;;;;;5059732;28;11896;-73
2021/12/08 20:06:43;;;;;;;;;88.25;74.00;;;;;;;;5060532;28;14705;-73
2021/12/08 20:09:08;;;;;;;;;93.00;80.50;;;;;;;;5059680;28;13820;-73
2021/12/08 20:11:33;;;;;;;;;93.75;85.50;;;;;;;;5060102;28;13441;-77
2021/12/08 20:14:01;;;;;;;;;95.75;84.75;;;;;;;;5060152;28;9570;-73
2021/12/08 20:16:27;;;;;;;;;94.00;83.75;;;;;;;;5058883;28;13010;-75
2021/12/08 20:18:52;;;;;;;;;88.75;74.00;;;;;;;;5058908;28;10555;-76
2021/12/08 20:21:18;;;;;;;;;97.75;87.50;;;;;;;;5059793;28;13741;-75
2021/12/08 20:23:44;;;;;;;;;93.75;82.75;;;;;;;;5045658;28;13291;-75
2021/12/08 20:26:11;;;;;;;;;91.25;78.75;;;;;;;;5039906;28;12794;-74
2021/12/08 20:28:39;;;;;;;;;86.75;73.25;;;;;;;;5040739;28;10436;-75
2021/12/08 20:31:05;;;;;;;;;83.25;64.50;;;;;;;;5039896;28;12261;-75
2021/12/08 20:33:31;;;;;;;;;85.25;71.00;;;;;;;;5040021;28;12324;-75
2021/12/08 20:35:57;;;;;;;;;89.25;76.50;;;;;;;;5040245;28;12344;-75
2021/12/08 20:38:22;;;;;;;;;88.25;77.75;;;;;;;;5039673;28;11527;-74
2021/12/08 20:40:50;;;;;;;;;93.25;82.50;;;;;;;;5040095;28;11395;-75
2021/12/08 20:43:15;;;;;;;;;89.50;75.50;;;;;;;;5039377;28;14738;-75
2021/12/08 20:45:42;;;;;;;;;93.25;80.50;;;;;;;;5047045;28;12428;-75
2021/12/08 20:48:08;;;;;;;;;93.00;77.50;;;;;;;;5059089;28;12774;-75
2021/12/08 20:50:34;;;;;;;;;90.00;78.25;;;;;;;;5059302;28;11394;-74
2021/12/08 20:53:00;;;;;;;;;89.25;75.75;;;;;;;;5059349;28;11793;-76
2021/12/08 20:55:25;;;;;;;;;88.00;73.50;;;;;;;;5058162;28;12518;-74
2021/12/08 20:57:51;;;;;;;;;87.25;69.50;;;;;;;;5059199;28;11541;-73
2021/12/08 21:00:30;;;;;;;;;83.50;68.25;;;;;;;;5058300;28;11860;-71
2021/12/08 21:02:59;;;;;;;;;85.50;65.75;;;;;;;;5059249;28;11534;-73
2021/12/08 21:05:25;;;;;;;;;82.50;65.50;;;;;;;;5058202;28;12601;-72
2021/12/08 21:07:50;;;;;;;;;79.25;62.25;;;;;;;;5058818;28;11363;-72
2021/12/08 21:10:16;;;;;;;;;75.50;60.50;;;;;;;;5057460;28;13684;-72
2021/12/08 21:12:41;;;;;;;;;76.75;60.00;;;;;;;;5058321;28;11554;-72
2021/12/08 21:15:08;;;;;;;;;78.75;61.00;;;;;;;;5059767;28;12301;-72
2021/12/08 21:17:34;;;;;;;;;82.00;62.50;;;;;;;;5059540;28;8811;-72
2021/12/08 21:19:59;;;;;;;;;78.50;61.50;;;;;;;;5059046;28;14419;-72
2021/12/08 21:22:25;;;;;;;;;78.75;62.00;;;;;;;;5058763;28;13901;-71
2021/12/08 21:24:50;;;;;;;;;78.50;61.75;;;;;;;;5056850;28;11148;-72
2021/12/08 21:29:58;;;;;;;;;75.00;58.75;;;;;;;;5146299;27;1850432;-76
2021/12/08 21:32:23;;;;;;;;;76.25;59.25;;;;;;;;5198849;27;22811;-75
2021/12/08 21:34:51;;;;;;;;;77.00;61.50;;;;;;;;5199572;27;11713;-75
2021/12/08 21:37:17;;;;;;;;;78.25;62.75;;;;;;;;5198460;27;12286;-76
2021/12/08 21:39:43;;;;;;;;;80.75;62.75;;;;;;;;5199563;27;11504;-71
2021/12/08 21:42:08;;;;;;;;;84.00;64.75;;;;;;;;5199328;27;9873;-75
2021/12/08 21:44:33;;;;;;;;;76.75;59.50;;;;;;;;5182232;27;11707;-75
2021/12/08 21:46:59;;;;;;;;;74.75;60.00;;;;;;;;5158851;27;15388;-73
2021/12/08 21:49:24;;;;;;;;;77.00;60.00;;;;;;;;5186809;27;12445;-72
2021/12/08 21:51:50;;;;;;;;;69.75;55.25;;;;;;;;5197448;27;10491;-72
2021/12/08 21:54:15;;;;;;;;;77.00;61.00;;;;;;;;5196797;27;13227;-72
2021/12/08 21:56:41;;;;;;;;;73.00;58.00;;;;;;;;5196919;27;13350;-72
2021/12/08 21:59:06;;;;;;;;;74.75;59.00;;;;;;;;5198648;27;9799;-72
2021/12/08 22:01:32;;;;;;;;;73.00;58.75;;;;;;;;5198071;27;10955;-71
2021/12/08 22:03:58;;;;;;;;;76.00;59.50;;;;;;;;5179034;27;11802;-73
2021/12/08 22:06:24;;;;;;;;;76.00;58.25;;;;;;;;5198531;27;11352;-73
2021/12/08 22:08:49;;;;;;;;;74.50;61.00;;;;;;;;5199138;27;8797;-72
2021/12/08 22:11:15;;;;;;;;;70.50;55.25;;;;;;;;5198363;27;12705;-72
2021/12/08 22:13:41;;;;;;;;;73.50;57.50;;;;;;;;5198579;27;13872;-72
2021/12/08 22:16:06;;;;;;;;;75.25;58.75;;;;;;;;5198114;27;11648;-71
2021/12/08 22:18:36;;;;;;;;;71.00;56.75;;;;;;;;5197903;27;12652;-71
2021/12/08 22:21:03;;;;;;;;;75.00;59.50;;;;;;;;5197858;27;10623;-71
2021/12/08 22:23:30;;;;;;;;;73.50;61.00;;;;;;;;5198694;27;11977;-72
2021/12/08 22:25:56;;;;;;;;;74.25;60.25;;;;;;;;5198135;27;12843;-71
2021/12/08 22:28:21;;;;;;;;;77.50;60.75;;;;;;;;5197667;27;11646;-71
2021/12/08 22:30:47;;;;;;;;;75.00;60.25;;;;;;;;5190911;27;10799;-71
2021/12/08 22:33:13;;;;;;;;;79.75;62.75;;;;;;;;5190575;27;10498;-72
2021/12/08 22:35:39;;;;;;;;;76.00;58.75;;;;;;;;5184493;27;10706;-70
2021/12/08 22:38:05;;;;;;;;;78.25;62.25;;;;;;;;5186067;27;11512;-71
2021/12/08 22:40:30;;;;;;;;;71.00;57.25;;;;;;;;5169889;27;11933;-71
2021/12/08 22:42:58;;;;;;;;;69.75;56.00;;;;;;;;5161725;27;12424;-71
2021/12/08 22:45:23;;;;;;;;;65.50;55.50;;;;;;;;5160213;27;13465;-70
2021/12/08 22:47:50;;;;;;;;;68.00;55.33;;;;;;;;5163125;27;12678;-74
2021/12/08 22:50:20;;;;;;;;;65.67;53.67;;;;;;;;5161883;27;11663;-72
2021/12/08 22:52:46;;;;;;;;;62.33;50.67;;;;;;;;5182370;27;11850;-72
2021/12/08 22:55:12;;;;;;;;;57.67;48.00;;;;;;;;5182257;27;10883;-73
2021/12/08 22:57:38;;;;;;;;;68.67;54.00;;;;;;;;5176127;27;13312;-73
2021/12/08 23:00:10;;;;;;;;;67.33;54.33;;;;;;;;5182362;27;10725;-73
2021/12/08 23:02:35;;;;;;;;;64.67;53.00;;;;;;;;5182604;27;11508;-73
2021/12/08 23:05:00;;;;;;;;;63.67;50.33;;;;;;;;5183039;27;11855;-73
2021/12/08 23:07:26;;;;;;;;;60.00;48.33;;;;;;;;5183944;27;11430;-73
2021/12/08 23:09:51;;;;;;;;;63.00;50.33;;;;;;;;5183178;27;11427;-73
2021/12/08 23:12:16;;;;;;;;;66.00;53.33;;;;;;;;5182376;27;10850;-72
2021/12/08 23:14:42;;;;;;;;;61.67;48.00;;;;;;;;5183629;27;9062;-72
2021/12/08 23:17:07;;;;;;;;;61.33;50.67;;;;;;;;5164229;27;14139;-72
2021/12/08 23:19:34;;;;;;;;;63.00;49.33;;;;;;;;5182673;27;12920;-72
2021/12/08 23:22:00;;;;;;;;;50.67;42.00;;;;;;;;5164881;27;12527;-73
2021/12/08 23:24:25;;;;;;;;;55.67;47.00;;;;;;;;5183668;27;13267;-72
2021/12/08 23:26:50;;;;;;;;;60.33;46.67;;;;;;;;5184415;27;8778;-72
2021/12/08 23:29:16;;;;;;;;;56.00;47.33;;;;;;;;5183017;27;13673;-72
2021/12/08 23:31:44;;;;;;;;;53.33;45.00;;;;;;;;5183690;27;13363;-73
2021/12/08 23:34:12;;;;;;;;;55.00;45.33;;;;;;;;5183589;27;11902;-72
2021/12/08 23:36:46;;;;;;;;;55.33;47.00;;;;;;;;5183744;27;11448;-71
2021/12/08 23:39:16;;;;;;;;;49.00;40.67;;;;;;;;5183071;27;10793;-72
2021/12/08 23:41:43;;;;;;;;;41.67;39.00;;;;;;;;5182901;27;13652;-73
2021/12/08 23:44:08;;;;;;;;;42.33;41.33;;;;;;;;5183182;27;12989;-72
2021/12/08 23:46:34;;;;;;;;;42.33;39.00;;;;;;;;5183463;27;12437;-72
2021/12/08 23:48:59;;;;;;;;;39.67;38.67;;;;;;;;5183589;27;10170;-73
2021/12/08 23:51:25;;;;;;;;;28.33;25.67;;;;;;;;5182051;27;13752;-73
2021/12/08 23:53:51;;;;;;;;;32.00;29.00;;;;;;;;5183453;27;12403;-72
2021/12/08 23:56:17;;;;;;;;;36.33;31.67;;;;;;;;5183173;27;13312;-73
2021/12/08 23:58:49;;;;;;;;;36.00;30.67;;;;;;;;5182348;27;12315;-73
